Airfield :
LOGIN :

Register | Disclaimer

   EN    FR    IT 

 










Legend :    VFR   Marginal VFR   IFR   Intensive IFR   Very Intensive IFR
Visi :
Ceiling :
>= 8 km
>= 3000ft
5 to 8 km
1000 to 3000 ft
1500m to 5 km
500 to 1000 ft
800 to 1500m
200 to 500 ft
< 800m
< 200 ft
Symbols :   Thunderstorms  Fog  Heavy snow  Heavy precipitations  Wind > 20 kt
SIGMETs :     Misc.  Thunderstorms  Icing  Turbulence  Mountain Waves  Volcanic Ashes







- Airport Elevation : 31 ft
- IATA code : INV
- Download approach charts


EGPE - Inverness

CURRENT METAR :
  • 172350Z AUTO 22016G28KT 190V250 9999 BKN044/// 14/09 Q1005

EXPIRED METARs :
  • 172320Z AUTO 22022G32KT 9999 BKN046/// 14/10 Q1005
  • 172250Z AUTO 22022KT 9999 NCD 15/09 Q1005
  • 172220Z AUTO 22019KT 9999 OVC045/// 15/10 Q1005
  • 172150Z 23019KT 9999 SCT032 BKN048 14/09 Q1005
  • 172120Z 23022KT 9999 FEW020 SCT035 15/10 Q1004

TAF TAF EGPE
Valid from the 18 at 00:00 until the 18 at 09:00 UTC


172259Z 1800/1809 23018KT 9999 FEW035
TEMPO 1800/1809 23021G31KT
ATIS : +44 1667 464 255
No reported NOTAMs for that airfield.
1 SIGMET reported for the Scottish FIR (EGPX) :
 
Severe mountain waves
EGPX SIGMET 03 VALID 172330/180330 EGRR
EGPX SCOTTISH FIR SEV MTW FCST WI N5500 E00000 - N5500 W00530 - N5355 W00530 - N5427 W00803 - N5520 W00655 - N5833 W00438 - N5840 W00124 - N5500 E00000 FL040/160 STNR NC=



MET'MAP, your aeronautical weather chart ! - Copyright ORBIFLY December 2007 - Disclaimer

ORBIFLY MET'MAP TEAM :

Programming & Development : Alexandra Zaïnal
Concept & Development : Baudouin d'Aumeries
Co-Development & Prog : Marc-Olivier Méhu
Technical & hardware support : Manuel Goepfert

Contact : metmap@orbifly.com




SOURCES & CREDITS :

   NOAA